BIRK/RKV METAR and TAF weather

Enter ICAO airport designator
Station Type Date Time Source
BIRK METAR 2019/08/22 03:00 UTC NOAA

BIRK 220300Z 10010KT CAVOK 11/03 Q1003


Station Type Date Time Source
BIRK Decoded METAR 2019/08/22 03:00 UTC NOAA

Station name not available
Aug 21, 2019 - 11:00 PM EDT / 2019.08.22 0300 UTC
Wind: from the E (100 degrees) at 12 MPH (10 KT):0
Visibility: greater than 7 mile(s):0
Temperature: 51 F (11 C)
Dew Point: 37 F (3 C)
Relative Humidity: 57%
Pressure (altimeter): 29.62 in. Hg (1003 hPa)
ob: BIRK 220300Z 10010KT CAVOK 11/03 Q1003
cycle: 3

Station Type Date Time Source
BIRK TAF 2019/08/22 03:33 UTC NOAA

TAF BIRK 220002Z 2203/2303 VRB03KT 9999 FEW040 BKN060 TX15/2215Z TN09/2206Z
BECMG 2213/2215 30007KT -SHRA

Example: see airport list